createdAt,value
2023-03-17T00:03:56.490Z,11.82
2023-03-17T00:08:59.348Z,14.85
2023-03-17T00:14:02.164Z,16.83
2023-03-17T00:19:05.165Z,19.85
2023-03-17T00:24:12.966Z,17.38
2023-03-17T00:29:17.370Z,18.60
2023-03-17T00:34:20.423Z,20.40
2023-03-17T00:39:24.559Z,14.65
2023-03-17T00:44:30.569Z,13.48
2023-03-17T00:49:33.341Z,23.35
2023-03-17T00:54:36.198Z,15.23
2023-03-17T00:59:41.970Z,16.27
2023-03-17T01:04:52.874Z,16.23
2023-03-17T01:10:02.453Z,16.45
2023-03-17T01:15:06.318Z,18.05
2023-03-17T01:20:21.973Z,20.10
2023-03-17T01:25:25.204Z,20.20
2023-03-17T01:30:32.640Z,16.33
2023-03-17T01:35:37.143Z,16.15
2023-03-17T01:40:47.226Z,14.85
2023-03-17T01:46:26.273Z,16.27
2023-03-17T01:51:47.407Z,15.05
2023-03-17T01:56:52.644Z,18.20
2023-03-17T02:02:02.684Z,13.63
2023-03-17T02:07:05.790Z,18.42
2023-03-17T02:12:09.617Z,34.75
2023-03-17T02:17:12.448Z,26.50
2023-03-17T02:22:15.928Z,20.45
2023-03-17T02:27:24.874Z,21.52
2023-03-17T02:32:29.362Z,28.13
2023-03-17T02:37:33.868Z,24.97
2023-03-17T02:42:36.993Z,26.35
2023-03-17T02:47:40.154Z,20.83
2023-03-17T02:52:43.067Z,18.20
2023-03-17T02:57:45.937Z,13.93
2023-03-17T03:02:48.823Z,15.82
2023-03-17T03:07:52.632Z,24.88
2023-03-17T03:12:55.384Z,12.07
2023-03-17T03:17:58.236Z,10.95
2023-03-17T03:23:00.979Z,14.05
2023-03-17T03:28:05.138Z,17.95
2023-03-17T03:33:08.290Z,14.53
2023-03-17T03:38:12.614Z,9.80
2023-03-17T03:43:22.859Z,13.18
2023-03-17T03:48:26.658Z,8.45
2023-03-17T03:53:30.172Z,11.40
2023-03-17T03:58:32.859Z,10.18
2023-03-17T04:03:39.593Z,11.85
2023-03-17T04:08:42.431Z,10.63
2023-03-17T04:13:45.099Z,15.00
2023-03-17T04:18:48.012Z,7.22
2023-03-17T04:23:51.047Z,12.23
2023-03-17T04:28:53.758Z,11.27
2023-03-17T04:33:59.045Z,9.82
2023-03-17T04:39:02.327Z,11.85
2023-03-17T04:44:05.361Z,8.27
2023-03-17T04:49:08.804Z,9.52
2023-03-17T04:54:11.590Z,12.82
2023-03-17T04:59:14.580Z,8.18
2023-03-17T05:04:30.851Z,9.30
2023-03-17T05:09:34.183Z,13.32
2023-03-17T05:14:37.635Z,7.60
2023-03-17T05:19:40.369Z,6.70
2023-03-17T05:24:43.342Z,5.90
2023-03-17T05:29:46.067Z,6.63
2023-03-17T05:34:49.123Z,6.35
2023-03-17T05:39:54.073Z,9.48
2023-03-17T05:44:56.860Z,7.07
2023-03-17T05:50:01.044Z,6.18
2023-03-17T05:55:04.238Z,8.40
2023-03-17T06:00:08.100Z,7.70
2023-03-17T06:05:10.827Z,5.40
2023-03-17T06:10:14.048Z,5.32
2023-03-17T06:15:17.508Z,4.97
2023-03-17T06:20:20.454Z,6.75
2023-03-17T06:25:23.244Z,14.27
2023-03-17T06:30:25.961Z,7.60
2023-03-17T06:35:29.884Z,5.95
2023-03-17T06:40:34.453Z,6.97
2023-03-17T06:45:37.830Z,5.60
2023-03-17T06:50:40.939Z,6.90
2023-03-17T06:55:43.896Z,3.70
2023-03-17T07:00:49.214Z,4.05
2023-03-17T07:05:52.716Z,5.03
2023-03-17T07:10:57.674Z,7.75
2023-03-17T07:16:00.761Z,4.72
2023-03-17T07:21:03.753Z,2.83
2023-03-17T07:26:06.791Z,8.07
2023-03-17T07:31:10.913Z,5.18
2023-03-17T07:36:13.874Z,4.38
2023-03-17T07:41:16.711Z,5.15
2023-03-17T07:46:19.772Z,5.55
2023-03-17T07:51:23.708Z,3.20
2023-03-17T07:56:26.452Z,4.53
2023-03-17T08:01:29.629Z,4.55
2023-03-17T08:06:32.843Z,3.38
2023-03-17T08:11:36.435Z,3.88
2023-03-17T08:16:39.557Z,4.43
2023-03-17T08:21:42.531Z,4.15
2023-03-17T08:26:49.399Z,7.03
2023-03-17T08:31:52.518Z,3.95
2023-03-17T08:36:55.232Z,3.95
2023-03-17T08:41:58.355Z,4.43
2023-03-17T08:47:01.380Z,3.08
2023-03-17T08:52:04.278Z,4.63
2023-03-17T08:57:07.058Z,4.78
2023-03-17T09:02:12.140Z,3.17
2023-03-17T09:07:15.596Z,6.07
2023-03-17T09:12:18.283Z,4.18
2023-03-17T09:17:21.037Z,4.10
2023-03-17T09:22:23.949Z,2.78
2023-03-17T09:27:26.903Z,3.05
2023-03-17T09:32:29.893Z,5.45
2023-03-17T09:37:34.773Z,5.10
2023-03-17T09:43:00.209Z,5.28
2023-03-17T09:48:11.309Z,2.67
2023-03-17T09:53:35.950Z,7.32
2023-03-17T09:58:40.243Z,9.55
2023-03-17T10:03:43.258Z,10.50
2023-03-17T10:08:54.651Z,6.75
2023-03-17T10:14:16.329Z,6.43
2023-03-17T10:19:36.501Z,8.88
2023-03-17T10:24:43.961Z,6.15
2023-03-17T10:29:48.489Z,4.25
2023-03-17T10:34:52.990Z,4.55
2023-03-17T10:39:57.606Z,5.18
2023-03-17T10:45:28.125Z,7.03
2023-03-17T10:50:36.267Z,5.60
2023-03-17T10:55:38.902Z,4.50
2023-03-17T11:00:57.953Z,6.38
2023-03-17T11:06:11.042Z,5.43
2023-03-17T11:11:31.816Z,4.43
2023-03-17T11:16:38.209Z,5.20
2023-03-17T11:22:25.259Z,6.00
2023-03-17T11:27:35.607Z,5.75
2023-03-17T11:32:48.168Z,3.42
2023-03-17T11:38:28.805Z,3.45
2023-03-17T11:43:50.150Z,4.20
2023-03-17T11:49:15.212Z,10.18
2023-03-17T11:59:30.878Z,7.30
2023-03-17T12:04:38.285Z,6.20
2023-03-17T12:09:48.304Z,9.68
2023-03-17T12:14:52.713Z,17.92
2023-03-17T12:20:18.591Z,12.17
2023-03-17T12:25:25.966Z,10.48
2023-03-17T12:30:45.776Z,8.70
2023-03-17T12:35:48.618Z,6.80
2023-03-17T12:41:22.291Z,9.65
2023-03-17T12:46:53.946Z,8.65
2023-03-17T12:52:02.257Z,10.13
2023-03-17T12:57:05.367Z,12.02
2023-03-17T13:02:18.283Z,7.65
2023-03-17T13:07:27.315Z,8.27
2023-03-17T13:12:44.961Z,8.15
2023-03-17T13:17:48.227Z,15.35
2023-03-17T13:23:12.231Z,18.88
2023-03-17T13:28:15.535Z,16.10
2023-03-17T13:33:26.235Z,17.30
2023-03-17T13:38:38.092Z,16.27
2023-03-17T13:44:23.358Z,16.10
2023-03-17T13:49:29.938Z,17.02
2023-03-17T13:54:35.318Z,13.00
2023-03-17T13:59:40.998Z,10.43
2023-03-17T14:04:54.014Z,11.55
2023-03-17T14:10:00.090Z,13.32
2023-03-17T14:15:17.698Z,11.85
2023-03-17T14:20:23.920Z,14.65
2023-03-17T14:25:38.656Z,13.43
2023-03-17T14:30:53.623Z,7.80
2023-03-17T14:36:01.783Z,6.35
2023-03-17T14:41:22.985Z,6.22
2023-03-17T14:46:31.015Z,7.72
2023-03-17T14:51:36.845Z,11.68
2023-03-17T14:56:49.987Z,8.02
2023-03-17T15:02:04.424Z,6.25
2023-03-17T15:07:08.092Z,5.13
2023-03-17T15:12:18.934Z,11.02
2023-03-17T15:17:26.331Z,15.93
2023-03-17T15:22:37.111Z,24.45
2023-03-17T15:27:39.893Z,14.35
2023-03-17T15:32:42.696Z,8.35
2023-03-17T15:37:45.618Z,9.05
2023-03-17T15:42:48.614Z,5.07
2023-03-17T15:47:51.691Z,4.85
2023-03-17T15:52:56.269Z,7.97
2023-03-17T15:57:59.631Z,8.35
2023-03-17T16:03:09.307Z,7.18
2023-03-17T16:08:14.524Z,7.82
2023-03-17T16:13:17.265Z,5.97
2023-03-17T16:18:24.749Z,6.30
2023-03-17T16:23:31.512Z,6.20
2023-03-17T16:28:35.645Z,7.25
2023-03-17T16:33:43.817Z,7.53
2023-03-17T16:38:47.582Z,8.40
2023-03-17T16:43:58.466Z,7.80
2023-03-17T16:49:04.953Z,6.78
2023-03-17T16:54:08.459Z,6.93
2023-03-17T16:59:21.189Z,7.57
2023-03-17T17:04:26.993Z,10.95
2023-03-17T17:09:29.752Z,10.07
2023-03-17T17:14:32.827Z,10.25
2023-03-17T17:19:35.866Z,8.23
2023-03-17T17:24:38.595Z,5.78
2023-03-17T17:29:41.400Z,8.70
2023-03-17T17:34:44.207Z,7.13
2023-03-17T17:39:47.106Z,6.13
2023-03-17T17:44:50.180Z,6.22
2023-03-17T17:49:53.810Z,5.80
2023-03-17T17:55:03.285Z,7.45
2023-03-17T18:00:10.810Z,5.75
2023-03-17T18:05:14.091Z,7.07
2023-03-17T18:10:27.254Z,7.35
2023-03-17T18:15:30.193Z,6.43
2023-03-17T18:20:33.358Z,6.40
2023-03-17T18:25:37.862Z,7.40
2023-03-17T18:30:41.097Z,10.00
2023-03-17T18:35:48.268Z,10.35
2023-03-17T18:40:51.462Z,6.75
2023-03-17T18:45:54.254Z,8.05
2023-03-17T18:50:57.074Z,8.82
2023-03-17T18:55:59.785Z,5.03
2023-03-17T19:01:03.108Z,6.18
2023-03-17T19:06:24.552Z,7.90
2023-03-17T19:11:27.714Z,6.22
2023-03-17T19:16:31.192Z,6.68
2023-03-17T19:21:34.038Z,7.70
2023-03-17T19:26:37.837Z,12.73
2023-03-17T19:31:41.734Z,6.10
2023-03-17T19:36:46.901Z,5.63
2023-03-17T19:41:53.542Z,6.97
2023-03-17T19:46:56.237Z,8.95
2023-03-17T19:51:58.915Z,8.27
2023-03-17T19:57:01.790Z,10.93
2023-03-17T20:02:04.589Z,8.45
2023-03-17T20:07:07.790Z,8.60
2023-03-17T20:12:10.763Z,9.63
2023-03-17T20:17:14.906Z,8.30
2023-03-17T20:22:17.630Z,8.45
2023-03-17T20:27:20.577Z,9.50
2023-03-17T20:32:23.321Z,9.93
2023-03-17T20:37:26.289Z,6.90
2023-03-17T20:42:29.000Z,6.80
2023-03-17T20:47:31.821Z,8.60
2023-03-17T20:52:36.032Z,6.45
2023-03-17T20:57:38.750Z,5.22
2023-03-17T21:02:41.613Z,5.70
2023-03-17T21:07:44.927Z,5.63
2023-03-17T21:12:48.368Z,6.43
2023-03-17T21:17:51.062Z,6.95
2023-03-17T21:22:53.790Z,5.55
2023-03-17T21:27:56.863Z,4.53
2023-03-17T21:33:01.281Z,6.55
2023-03-17T21:38:04.232Z,5.15
2023-03-17T21:43:06.982Z,8.15
2023-03-17T21:48:09.780Z,5.35
2023-03-17T21:53:15.152Z,5.45
2023-03-17T21:58:18.247Z,7.10
2023-03-17T22:03:21.073Z,6.63
2023-03-17T22:08:23.856Z,5.72
2023-03-17T22:13:26.720Z,5.68
2023-03-17T22:18:29.448Z,7.32
2023-03-17T22:23:33.669Z,6.93
2023-03-17T22:28:36.504Z,8.85
2023-03-17T22:33:39.561Z,4.97
2023-03-17T22:38:42.664Z,6.80
2023-03-17T22:43:45.894Z,5.53
2023-03-17T22:48:48.904Z,7.22
2023-03-17T22:53:52.133Z,6.30
2023-03-17T22:58:55.502Z,6.75
2023-03-17T23:03:58.317Z,7.45
2023-03-17T23:09:01.400Z,9.60
2023-03-17T23:14:04.723Z,6.63
2023-03-17T23:19:07.490Z,6.07
2023-03-17T23:24:10.494Z,14.20
2023-03-17T23:29:13.493Z,8.00
2023-03-17T23:34:16.336Z,9.65
2023-03-17T23:39:19.305Z,8.50
2023-03-17T23:44:23.021Z,9.25
2023-03-17T23:49:25.838Z,5.77
2023-03-17T23:54:29.073Z,9.23
2023-03-17T23:59:31.770Z,7.25
